sensor_id;sensor_type;location;lat;lon;timestamp;temperature;humidity
6114;DHT22;3087;48.392;10.836;2023-07-24T00:00:20;21.60;90.40
6114;DHT22;3087;48.392;10.836;2023-07-24T00:02:46;21.60;90.60
6114;DHT22;3087;48.392;10.836;2023-07-24T00:05:12;21.60;90.60
6114;DHT22;3087;48.392;10.836;2023-07-24T00:07:37;21.60;90.90
6114;DHT22;3087;48.392;10.836;2023-07-24T00:10:03;21.60;90.90
6114;DHT22;3087;48.392;10.836;2023-07-24T00:12:29;21.50;91.00
6114;DHT22;3087;48.392;10.836;2023-07-24T00:14:55;21.50;91.10
6114;DHT22;3087;48.392;10.836;2023-07-24T00:17:20;21.30;91.30
6114;DHT22;3087;48.392;10.836;2023-07-24T00:19:46;21.30;91.30
6114;DHT22;3087;48.392;10.836;2023-07-24T00:22:11;21.30;91.40
6114;DHT22;3087;48.392;10.836;2023-07-24T00:24:37;21.20;91.40
6114;DHT22;3087;48.392;10.836;2023-07-24T00:27:03;21.10;91.70
6114;DHT22;3087;48.392;10.836;2023-07-24T00:29:28;21.10;91.90
6114;DHT22;3087;48.392;10.836;2023-07-24T00:31:54;21.00;91.90
6114;DHT22;3087;48.392;10.836;2023-07-24T00:34:20;20.90;92.10
6114;DHT22;3087;48.392;10.836;2023-07-24T00:36:45;20.90;92.10
6114;DHT22;3087;48.392;10.836;2023-07-24T00:39:11;20.90;92.20
6114;DHT22;3087;48.392;10.836;2023-07-24T00:41:37;21.00;92.20
6114;DHT22;3087;48.392;10.836;2023-07-24T00:44:02;21.00;92.30
6114;DHT22;3087;48.392;10.836;2023-07-24T00:46:28;20.90;92.30
6114;DHT22;3087;48.392;10.836;2023-07-24T00:48:58;20.90;92.40
6114;DHT22;3087;48.392;10.836;2023-07-24T00:51:29;20.90;92.80
6114;DHT22;3087;48.392;10.836;2023-07-24T00:53:57;20.90;92.60
6114;DHT22;3087;48.392;10.836;2023-07-24T00:56:23;20.90;92.20
6114;DHT22;3087;48.392;10.836;2023-07-24T00:58:49;21.20;91.90
6114;DHT22;3087;48.392;10.836;2023-07-24T01:01:17;21.50;92.10
6114;DHT22;3087;48.392;10.836;2023-07-24T01:03:43;21.40;92.20
6114;DHT22;3087;48.392;10.836;2023-07-24T01:06:09;21.30;92.40
6114;DHT22;3087;48.392;10.836;2023-07-24T01:08:36;21.20;92.80
6114;DHT22;3087;48.392;10.836;2023-07-24T01:11:19;21.10;92.90
6114;DHT22;3087;48.392;10.836;2023-07-24T01:16:41;20.90;93.30
6114;DHT22;3087;48.392;10.836;2023-07-24T01:27:32;20.90;93.70
6114;DHT22;3087;48.392;10.836;2023-07-24T01:29:58;20.90;93.80
6114;DHT22;3087;48.392;10.836;2023-07-24T01:32:23;20.80;93.70
6114;DHT22;3087;48.392;10.836;2023-07-24T01:34:50;20.90;93.70
6114;DHT22;3087;48.392;10.836;2023-07-24T01:37:16;20.90;93.70
6114;DHT22;3087;48.392;10.836;2023-07-24T01:39:43;20.90;93.60
6114;DHT22;3087;48.392;10.836;2023-07-24T01:42:09;20.90;93.70
6114;DHT22;3087;48.392;10.836;2023-07-24T01:44:35;20.90;93.80
6114;DHT22;3087;48.392;10.836;2023-07-24T01:47:01;21.10;94.00
6114;DHT22;3087;48.392;10.836;2023-07-24T01:49:26;21.30;94.60
6114;DHT22;3087;48.392;10.836;2023-07-24T01:51:52;21.40;94.80
6114;DHT22;3087;48.392;10.836;2023-07-24T01:54:18;21.10;94.90
6114;DHT22;3087;48.392;10.836;2023-07-24T01:56:43;20.70;96.60
6114;DHT22;3087;48.392;10.836;2023-07-24T01:59:09;19.60;99.90
6114;DHT22;3087;48.392;10.836;2023-07-24T02:01:35;18.50;99.90
6114;DHT22;3087;48.392;10.836;2023-07-24T02:04:01;18.10;99.90
6114;DHT22;3087;48.392;10.836;2023-07-24T02:06:26;17.90;99.90
6114;DHT22;3087;48.392;10.836;2023-07-24T02:08:52;17.90;99.90
6114;DHT22;3087;48.392;10.836;2023-07-24T02:11:18;18.00;99.90
6114;DHT22;3087;48.392;10.836;2023-07-24T02:13:44;18.00;99.90
6114;DHT22;3087;48.392;10.836;2023-07-24T02:16:13;18.10;99.90
6114;DHT22;3087;48.392;10.836;2023-07-24T02:18:42;18.30;99.90
6114;DHT22;3087;48.392;10.836;2023-07-24T02:21:08;18.60;99.90
6114;DHT22;3087;48.392;10.836;2023-07-24T02:23:34;18.80;99.90
6114;DHT22;3087;48.392;10.836;2023-07-24T02:26:00;18.80;99.90
6114;DHT22;3087;48.392;10.836;2023-07-24T02:28:25;18.80;99.90
6114;DHT22;3087;48.392;10.836;2023-07-24T02:30:51;18.80;99.90
6114;DHT22;3087;48.392;10.836;2023-07-24T02:33:17;19.00;99.90
6114;DHT22;3087;48.392;10.836;2023-07-24T02:35:43;19.10;99.90
6114;DHT22;3087;48.392;10.836;2023-07-24T02:38:09;19.00;99.90
6114;DHT22;3087;48.392;10.836;2023-07-24T02:40:35;18.40;99.90
6114;DHT22;3087;48.392;10.836;2023-07-24T02:43:01;17.30;99.90
6114;DHT22;3087;48.392;10.836;2023-07-24T02:45:27;16.90;99.90
6114;DHT22;3087;48.392;10.836;2023-07-24T02:47:52;17.10;99.90
6114;DHT22;3087;48.392;10.836;2023-07-24T02:50:18;17.20;99.90
6114;DHT22;3087;48.392;10.836;2023-07-24T02:52:43;17.20;99.90
6114;DHT22;3087;48.392;10.836;2023-07-24T02:55:09;17.20;99.90
6114;DHT22;3087;48.392;10.836;2023-07-24T02:57:34;17.30;99.90
6114;DHT22;3087;48.392;10.836;2023-07-24T03:00:00;17.20;99.90
6114;DHT22;3087;48.392;10.836;2023-07-24T03:02:25;17.00;99.90
6114;DHT22;3087;48.392;10.836;2023-07-24T03:04:51;16.80;99.90
6114;DHT22;3087;48.392;10.836;2023-07-24T03:07:17;17.30;99.90
6114;DHT22;3087;48.392;10.836;2023-07-24T03:09:42;16.90;99.90
6114;DHT22;3087;48.392;10.836;2023-07-24T03:12:08;16.90;99.90
6114;DHT22;3087;48.392;10.836;2023-07-24T03:14:33;17.00;99.90
6114;DHT22;3087;48.392;10.836;2023-07-24T03:16:59;17.00;99.90
6114;DHT22;3087;48.392;10.836;2023-07-24T03:19:25;17.00;99.90
6114;DHT22;3087;48.392;10.836;2023-07-24T03:21:50;17.10;99.90
6114;DHT22;3087;48.392;10.836;2023-07-24T03:24:16;17.20;99.90
6114;DHT22;3087;48.392;10.836;2023-07-24T03:26:42;17.20;99.90
6114;DHT22;3087;48.392;10.836;2023-07-24T03:29:08;17.30;99.90
6114;DHT22;3087;48.392;10.836;2023-07-24T03:31:33;17.30;99.90
6114;DHT22;3087;48.392;10.836;2023-07-24T03:33:59;17.40;99.90
6114;DHT22;3087;48.392;10.836;2023-07-24T03:36:24;17.40;99.90
6114;DHT22;3087;48.392;10.836;2023-07-24T03:38:50;17.40;99.90
6114;DHT22;3087;48.392;10.836;2023-07-24T03:41:15;17.40;99.90
6114;DHT22;3087;48.392;10.836;2023-07-24T03:43:41;17.40;99.90
6114;DHT22;3087;48.392;10.836;2023-07-24T03:46:08;17.30;99.90
6114;DHT22;3087;48.392;10.836;2023-07-24T03:48:33;17.30;99.90
6114;DHT22;3087;48.392;10.836;2023-07-24T03:51:00;17.40;99.90
6114;DHT22;3087;48.392;10.836;2023-07-24T03:53:27;17.40;99.90
6114;DHT22;3087;48.392;10.836;2023-07-24T03:55:52;17.40;99.90
6114;DHT22;3087;48.392;10.836;2023-07-24T03:58:18;17.90;99.90
6114;DHT22;3087;48.392;10.836;2023-07-24T04:00:44;17.50;99.90
6114;DHT22;3087;48.392;10.836;2023-07-24T04:03:09;17.60;99.90
6114;DHT22;3087;48.392;10.836;2023-07-24T04:05:35;17.50;99.90
6114;DHT22;3087;48.392;10.836;2023-07-24T04:08:02;17.70;99.90
6114;DHT22;3087;48.392;10.836;2023-07-24T04:10:28;17.90;99.90
6114;DHT22;3087;48.392;10.836;2023-07-24T04:12:54;18.00;99.90
6114;DHT22;3087;48.392;10.836;2023-07-24T04:15:19;17.80;99.90
6114;DHT22;3087;48.392;10.836;2023-07-24T04:17:45;17.90;99.90
6114;DHT22;3087;48.392;10.836;2023-07-24T04:20:11;18.40;99.90
6114;DHT22;3087;48.392;10.836;2023-07-24T04:22:37;18.10;99.90
6114;DHT22;3087;48.392;10.836;2023-07-24T04:25:02;17.90;99.90
6114;DHT22;3087;48.392;10.836;2023-07-24T04:27:28;17.80;99.90
6114;DHT22;3087;48.392;10.836;2023-07-24T04:29:53;17.70;99.90
6114;DHT22;3087;48.392;10.836;2023-07-24T04:32:19;17.70;99.90
6114;DHT22;3087;48.392;10.836;2023-07-24T04:34:44;17.80;99.90
6114;DHT22;3087;48.392;10.836;2023-07-24T04:37:10;17.90;99.90
6114;DHT22;3087;48.392;10.836;2023-07-24T04:39:38;17.80;99.90
6114;DHT22;3087;48.392;10.836;2023-07-24T04:42:04;17.70;99.90
6114;DHT22;3087;48.392;10.836;2023-07-24T04:44:30;17.60;99.90
6114;DHT22;3087;48.392;10.836;2023-07-24T04:46:57;17.60;99.90
6114;DHT22;3087;48.392;10.836;2023-07-24T04:49:23;17.60;99.90
6114;DHT22;3087;48.392;10.836;2023-07-24T04:51:50;17.60;99.90
6114;DHT22;3087;48.392;10.836;2023-07-24T04:54:17;17.70;99.90
6114;DHT22;3087;48.392;10.836;2023-07-24T04:56:42;17.80;99.90
6114;DHT22;3087;48.392;10.836;2023-07-24T04:59:08;17.80;99.90
6114;DHT22;3087;48.392;10.836;2023-07-24T05:01:33;17.80;99.90
6114;DHT22;3087;48.392;10.836;2023-07-24T05:03:59;17.70;99.90
6114;DHT22;3087;48.392;10.836;2023-07-24T05:06:25;17.70;99.90
6114;DHT22;3087;48.392;10.836;2023-07-24T05:08:52;17.80;99.90
6114;DHT22;3087;48.392;10.836;2023-07-24T05:11:18;17.90;99.90
6114;DHT22;3087;48.392;10.836;2023-07-24T05:13:44;17.80;99.90
6114;DHT22;3087;48.392;10.836;2023-07-24T05:16:09;17.80;99.90
6114;DHT22;3087;48.392;10.836;2023-07-24T05:18:35;17.90;99.90
6114;DHT22;3087;48.392;10.836;2023-07-24T05:21:01;17.90;99.90
6114;DHT22;3087;48.392;10.836;2023-07-24T05:23:26;17.90;99.90
6114;DHT22;3087;48.392;10.836;2023-07-24T05:26:03;17.90;99.90
6114;DHT22;3087;48.392;10.836;2023-07-24T05:28:30;17.90;99.90
6114;DHT22;3087;48.392;10.836;2023-07-24T05:30:59;18.10;99.90
6114;DHT22;3087;48.392;10.836;2023-07-24T05:33:25;20.40;99.90
6114;DHT22;3087;48.392;10.836;2023-07-24T05:35:50;18.10;99.90
6114;DHT22;3087;48.392;10.836;2023-07-24T05:38:16;18.10;99.90
6114;DHT22;3087;48.392;10.836;2023-07-24T05:40:42;18.10;99.90
6114;DHT22;3087;48.392;10.836;2023-07-24T05:43:07;18.10;99.90
6114;DHT22;3087;48.392;10.836;2023-07-24T05:45:33;17.90;99.90
6114;DHT22;3087;48.392;10.836;2023-07-24T05:47:58;17.70;99.90
6114;DHT22;3087;48.392;10.836;2023-07-24T05:50:24;17.70;99.90
6114;DHT22;3087;48.392;10.836;2023-07-24T05:52:49;17.70;99.90
6114;DHT22;3087;48.392;10.836;2023-07-24T05:55:15;17.70;99.90
6114;DHT22;3087;48.392;10.836;2023-07-24T05:57:41;17.70;99.90
6114;DHT22;3087;48.392;10.836;2023-07-24T06:00:07;17.70;99.90
6114;DHT22;3087;48.392;10.836;2023-07-24T06:02:33;17.70;99.90
6114;DHT22;3087;48.392;10.836;2023-07-24T06:04:58;17.80;99.90
6114;DHT22;3087;48.392;10.836;2023-07-24T06:07:24;17.90;99.90
6114;DHT22;3087;48.392;10.836;2023-07-24T06:09:50;18.00;99.90
6114;DHT22;3087;48.392;10.836;2023-07-24T06:12:15;18.20;99.90
6114;DHT22;3087;48.392;10.836;2023-07-24T06:14:41;18.40;99.90
6114;DHT22;3087;48.392;10.836;2023-07-24T06:17:07;18.50;99.90
6114;DHT22;3087;48.392;10.836;2023-07-24T06:19:32;18.60;99.90
6114;DHT22;3087;48.392;10.836;2023-07-24T06:21:58;18.70;99.90
6114;DHT22;3087;48.392;10.836;2023-07-24T06:24:23;18.60;99.90
6114;DHT22;3087;48.392;10.836;2023-07-24T06:26:49;18.20;99.90
6114;DHT22;3087;48.392;10.836;2023-07-24T06:29:15;18.20;99.90
6114;DHT22;3087;48.392;10.836;2023-07-24T06:31:41;18.20;99.90
6114;DHT22;3087;48.392;10.836;2023-07-24T06:34:07;18.20;99.90
6114;DHT22;3087;48.392;10.836;2023-07-24T06:36:32;18.20;99.90
6114;DHT22;3087;48.392;10.836;2023-07-24T06:38:58;18.30;99.90
6114;DHT22;3087;48.392;10.836;2023-07-24T06:41:23;18.40;99.90
6114;DHT22;3087;48.392;10.836;2023-07-24T06:43:50;18.20;99.90
6114;DHT22;3087;48.392;10.836;2023-07-24T06:46:16;17.90;99.90
6114;DHT22;3087;48.392;10.836;2023-07-24T06:48:42;17.50;99.90
6114;DHT22;3087;48.392;10.836;2023-07-24T06:51:07;17.40;99.90
6114;DHT22;3087;48.392;10.836;2023-07-24T06:53:33;17.40;99.90
6114;DHT22;3087;48.392;10.836;2023-07-24T06:55:58;17.30;99.90
6114;DHT22;3087;48.392;10.836;2023-07-24T06:58:24;17.20;99.90
6114;DHT22;3087;48.392;10.836;2023-07-24T07:00:50;17.10;99.90
6114;DHT22;3087;48.392;10.836;2023-07-24T07:03:15;17.10;99.90
6114;DHT22;3087;48.392;10.836;2023-07-24T07:05:41;17.50;99.90
6114;DHT22;3087;48.392;10.836;2023-07-24T07:08:06;17.20;99.90
6114;DHT22;3087;48.392;10.836;2023-07-24T07:10:32;16.10;99.90
6114;DHT22;3087;48.392;10.836;2023-07-24T07:12:57;17.20;99.90
6114;DHT22;3087;48.392;10.836;2023-07-24T07:15:23;17.20;99.90
6114;DHT22;3087;48.392;10.836;2023-07-24T07:17:49;17.10;99.90
6114;DHT22;3087;48.392;10.836;2023-07-24T07:20:14;17.10;99.90
6114;DHT22;3087;48.392;10.836;2023-07-24T07:22:40;17.00;99.90
6114;DHT22;3087;48.392;10.836;2023-07-24T07:25:06;17.00;99.90
6114;DHT22;3087;48.392;10.836;2023-07-24T07:27:31;17.00;99.90
6114;DHT22;3087;48.392;10.836;2023-07-24T07:29:57;16.90;99.90
6114;DHT22;3087;48.392;10.836;2023-07-24T07:32:22;16.90;99.90
6114;DHT22;3087;48.392;10.836;2023-07-24T07:34:48;16.90;99.90
6114;DHT22;3087;48.392;10.836;2023-07-24T07:37:13;17.30;99.90
6114;DHT22;3087;48.392;10.836;2023-07-24T07:39:39;16.90;99.90
6114;DHT22;3087;48.392;10.836;2023-07-24T07:42:05;16.90;99.90
6114;DHT22;3087;48.392;10.836;2023-07-24T07:44:30;16.80;99.90
6114;DHT22;3087;48.392;10.836;2023-07-24T07:46:56;17.10;99.90
6114;DHT22;3087;48.392;10.836;2023-07-24T07:49:22;17.10;99.90
6114;DHT22;3087;48.392;10.836;2023-07-24T07:51:47;17.00;99.90
6114;DHT22;3087;48.392;10.836;2023-07-24T07:54:13;17.20;99.90
6114;DHT22;3087;48.392;10.836;2023-07-24T07:56:39;17.20;99.90
6114;DHT22;3087;48.392;10.836;2023-07-24T07:59:04;17.30;99.90
6114;DHT22;3087;48.392;10.836;2023-07-24T08:01:30;17.40;99.90
6114;DHT22;3087;48.392;10.836;2023-07-24T08:03:56;17.40;99.90
6114;DHT22;3087;48.392;10.836;2023-07-24T08:06:22;17.30;99.90
6114;DHT22;3087;48.392;10.836;2023-07-24T08:08:47;17.30;99.90
6114;DHT22;3087;48.392;10.836;2023-07-24T08:11:13;17.30;99.90
6114;DHT22;3087;48.392;10.836;2023-07-24T08:13:38;17.50;99.90
6114;DHT22;3087;48.392;10.836;2023-07-24T08:16:04;17.70;99.90
6114;DHT22;3087;48.392;10.836;2023-07-24T08:18:38;17.80;99.90
6114;DHT22;3087;48.392;10.836;2023-07-24T08:21:04;17.70;99.90
6114;DHT22;3087;48.392;10.836;2023-07-24T08:23:31;17.70;99.90
6114;DHT22;3087;48.392;10.836;2023-07-24T08:25:57;17.90;99.90
6114;DHT22;3087;48.392;10.836;2023-07-24T08:28:22;18.10;99.90
6114;DHT22;3087;48.392;10.836;2023-07-24T08:30:58;18.20;99.90
6114;DHT22;3087;48.392;10.836;2023-07-24T08:33:24;18.40;99.90
6114;DHT22;3087;48.392;10.836;2023-07-24T08:36:06;18.80;99.90
6114;DHT22;3087;48.392;10.836;2023-07-24T08:38:33;18.50;99.90
6114;DHT22;3087;48.392;10.836;2023-07-24T08:41:03;18.70;99.90
6114;DHT22;3087;48.392;10.836;2023-07-24T08:43:29;18.60;99.90
6114;DHT22;3087;48.392;10.836;2023-07-24T08:45:59;18.60;99.90
6114;DHT22;3087;48.392;10.836;2023-07-24T08:48:36;19.10;99.90
6114;DHT22;3087;48.392;10.836;2023-07-24T08:51:07;19.30;99.90
6114;DHT22;3087;48.392;10.836;2023-07-24T08:53:34;19.40;99.90
6114;DHT22;3087;48.392;10.836;2023-07-24T08:56:04;19.60;99.90
6114;DHT22;3087;48.392;10.836;2023-07-24T08:58:30;19.80;99.90
6114;DHT22;3087;48.392;10.836;2023-07-24T09:01:00;19.90;99.90
6114;DHT22;3087;48.392;10.836;2023-07-24T09:03:25;20.10;99.90
6114;DHT22;3087;48.392;10.836;2023-07-24T09:05:51;20.00;99.90
6114;DHT22;3087;48.392;10.836;2023-07-24T09:08:28;19.90;99.90
6114;DHT22;3087;48.392;10.836;2023-07-24T09:10:54;20.20;99.90
6114;DHT22;3087;48.392;10.836;2023-07-24T09:13:19;20.10;99.90
6114;DHT22;3087;48.392;10.836;2023-07-24T09:15:45;20.30;99.90
6114;DHT22;3087;48.392;10.836;2023-07-24T09:18:11;20.40;99.90
6114;DHT22;3087;48.392;10.836;2023-07-24T09:20:39;20.20;99.90
6114;DHT22;3087;48.392;10.836;2023-07-24T09:23:05;20.30;99.90
6114;DHT22;3087;48.392;10.836;2023-07-24T09:25:31;20.30;99.90
6114;DHT22;3087;48.392;10.836;2023-07-24T09:27:58;20.40;99.90
6114;DHT22;3087;48.392;10.836;2023-07-24T09:30:24;20.30;99.90
6114;DHT22;3087;48.392;10.836;2023-07-24T09:32:53;20.20;99.90
6114;DHT22;3087;48.392;10.836;2023-07-24T09:35:20;20.40;99.90
6114;DHT22;3087;48.392;10.836;2023-07-24T09:37:47;20.60;99.90
6114;DHT22;3087;48.392;10.836;2023-07-24T09:40:15;21.00;99.90
6114;DHT22;3087;48.392;10.836;2023-07-24T09:42:40;21.20;99.90
6114;DHT22;3087;48.392;10.836;2023-07-24T09:45:06;21.60;99.90
6114;DHT22;3087;48.392;10.836;2023-07-24T09:47:35;22.00;99.90
6114;DHT22;3087;48.392;10.836;2023-07-24T09:50:04;22.30;99.90
6114;DHT22;3087;48.392;10.836;2023-07-24T09:52:30;22.60;99.90
6114;DHT22;3087;48.392;10.836;2023-07-24T09:55:11;22.70;99.90
6114;DHT22;3087;48.392;10.836;2023-07-24T09:57:37;23.00;99.90
6114;DHT22;3087;48.392;10.836;2023-07-24T10:00:03;23.10;99.90
6114;DHT22;3087;48.392;10.836;2023-07-24T10:02:29;23.00;99.90
6114;DHT22;3087;48.392;10.836;2023-07-24T10:04:56;22.80;99.90
6114;DHT22;3087;48.392;10.836;2023-07-24T10:07:22;22.70;99.90
6114;DHT22;3087;48.392;10.836;2023-07-24T10:09:49;22.70;99.90
6114;DHT22;3087;48.392;10.836;2023-07-24T10:12:17;22.60;99.90
6114;DHT22;3087;48.392;10.836;2023-07-24T10:14:45;22.40;99.90
6114;DHT22;3087;48.392;10.836;2023-07-24T10:17:11;22.40;99.90
6114;DHT22;3087;48.392;10.836;2023-07-24T10:19:42;22.50;99.90
6114;DHT22;3087;48.392;10.836;2023-07-24T10:22:21;22.50;99.90
6114;DHT22;3087;48.392;10.836;2023-07-24T10:24:47;23.30;99.90
6114;DHT22;3087;48.392;10.836;2023-07-24T10:27:13;22.70;99.90
6114;DHT22;3087;48.392;10.836;2023-07-24T10:29:39;22.80;99.90
6114;DHT22;3087;48.392;10.836;2023-07-24T10:32:17;22.90;99.90
6114;DHT22;3087;48.392;10.836;2023-07-24T10:34:43;23.30;99.90
6114;DHT22;3087;48.392;10.836;2023-07-24T10:37:09;23.80;99.90
6114;DHT22;3087;48.392;10.836;2023-07-24T10:39:40;23.80;99.90
6114;DHT22;3087;48.392;10.836;2023-07-24T10:42:10;24.00;99.90
6114;DHT22;3087;48.392;10.836;2023-07-24T10:44:36;24.30;99.90
6114;DHT22;3087;48.392;10.836;2023-07-24T10:47:02;24.60;99.90
6114;DHT22;3087;48.392;10.836;2023-07-24T10:49:28;24.80;99.90
6114;DHT22;3087;48.392;10.836;2023-07-24T10:52:00;25.60;99.90
6114;DHT22;3087;48.392;10.836;2023-07-24T10:54:25;26.70;99.90
6114;DHT22;3087;48.392;10.836;2023-07-24T10:57:00;27.50;99.90
6114;DHT22;3087;48.392;10.836;2023-07-24T10:59:37;27.80;99.90
6114;DHT22;3087;48.392;10.836;2023-07-24T11:02:04;27.10;99.90
6114;DHT22;3087;48.392;10.836;2023-07-24T11:04:30;27.30;99.90
6114;DHT22;3087;48.392;10.836;2023-07-24T11:06:55;27.60;99.90
6114;DHT22;3087;48.392;10.836;2023-07-24T11:09:33;27.80;99.90
6114;DHT22;3087;48.392;10.836;2023-07-24T11:11:59;28.20;99.90
6114;DHT22;3087;48.392;10.836;2023-07-24T11:14:25;28.50;99.90
6114;DHT22;3087;48.392;10.836;2023-07-24T11:16:51;29.10;99.90
6114;DHT22;3087;48.392;10.836;2023-07-24T11:19:24;29.10;99.90
6114;DHT22;3087;48.392;10.836;2023-07-24T11:21:49;29.70;99.90
6114;DHT22;3087;48.392;10.836;2023-07-24T11:24:17;29.40;99.90
6114;DHT22;3087;48.392;10.836;2023-07-24T11:26:43;28.90;99.90
6114;DHT22;3087;48.392;10.836;2023-07-24T11:29:12;28.60;99.90
6114;DHT22;3087;48.392;10.836;2023-07-24T11:31:38;28.90;99.90
6114;DHT22;3087;48.392;10.836;2023-07-24T11:34:05;28.80;99.90
6114;DHT22;3087;48.392;10.836;2023-07-24T11:36:31;28.10;99.90
6114;DHT22;3087;48.392;10.836;2023-07-24T11:38:57;27.30;99.90
6114;DHT22;3087;48.392;10.836;2023-07-24T11:41:22;26.70;99.90
6114;DHT22;3087;48.392;10.836;2023-07-24T11:43:49;26.00;99.90
6114;DHT22;3087;48.392;10.836;2023-07-24T11:46:26;25.60;99.90
6114;DHT22;3087;48.392;10.836;2023-07-24T11:48:53;25.30;99.90
6114;DHT22;3087;48.392;10.836;2023-07-24T11:51:21;25.00;99.90
6114;DHT22;3087;48.392;10.836;2023-07-24T11:53:46;24.60;99.90
6114;DHT22;3087;48.392;10.836;2023-07-24T11:56:14;23.60;99.90
6114;DHT22;3087;48.392;10.836;2023-07-24T11:58:40;21.80;99.90
6114;DHT22;3087;48.392;10.836;2023-07-24T12:01:05;20.60;99.90
6114;DHT22;3087;48.392;10.836;2023-07-24T12:03:31;19.90;99.90
6114;DHT22;3087;48.392;10.836;2023-07-24T12:05:57;19.60;99.90
6114;DHT22;3087;48.392;10.836;2023-07-24T12:08:34;19.60;99.90
6114;DHT22;3087;48.392;10.836;2023-07-24T12:11:00;19.30;99.90
6114;DHT22;3087;48.392;10.836;2023-07-24T12:13:26;19.30;99.90
6114;DHT22;3087;48.392;10.836;2023-07-24T12:15:52;19.30;99.90
6114;DHT22;3087;48.392;10.836;2023-07-24T12:18:18;19.30;99.90
6114;DHT22;3087;48.392;10.836;2023-07-24T12:20:43;19.30;99.90
6114;DHT22;3087;48.392;10.836;2023-07-24T12:23:09;19.20;99.90
6114;DHT22;3087;48.392;10.836;2023-07-24T12:25:35;19.20;99.90
6114;DHT22;3087;48.392;10.836;2023-07-24T12:28:00;19.20;99.90
6114;DHT22;3087;48.392;10.836;2023-07-24T12:30:26;19.30;99.90
6114;DHT22;3087;48.392;10.836;2023-07-24T12:32:52;19.30;99.90
6114;DHT22;3087;48.392;10.836;2023-07-24T12:35:17;19.40;99.90
6114;DHT22;3087;48.392;10.836;2023-07-24T12:37:44;19.50;99.90
6114;DHT22;3087;48.392;10.836;2023-07-24T12:40:09;19.50;99.90
6114;DHT22;3087;48.392;10.836;2023-07-24T12:42:35;19.40;99.90
6114;DHT22;3087;48.392;10.836;2023-07-24T12:45:01;19.40;99.90
6114;DHT22;3087;48.392;10.836;2023-07-24T12:47:30;19.20;99.90
6114;DHT22;3087;48.392;10.836;2023-07-24T12:49:56;19.20;99.90
6114;DHT22;3087;48.392;10.836;2023-07-24T12:52:23;16.90;99.90
6114;DHT22;3087;48.392;10.836;2023-07-24T12:54:49;19.40;99.90
6114;DHT22;3087;48.392;10.836;2023-07-24T12:57:15;19.50;99.90
6114;DHT22;3087;48.392;10.836;2023-07-24T12:59:40;19.50;99.90
6114;DHT22;3087;48.392;10.836;2023-07-24T13:02:06;19.60;99.90
6114;DHT22;3087;48.392;10.836;2023-07-24T13:04:31;19.70;99.90
6114;DHT22;3087;48.392;10.836;2023-07-24T13:06:57;19.80;99.90
6114;DHT22;3087;48.392;10.836;2023-07-24T13:09:24;19.80;99.90
6114;DHT22;3087;48.392;10.836;2023-07-24T13:11:50;19.80;99.90
6114;DHT22;3087;48.392;10.836;2023-07-24T13:14:17;19.80;99.90
6114;DHT22;3087;48.392;10.836;2023-07-24T13:16:43;20.10;99.90
6114;DHT22;3087;48.392;10.836;2023-07-24T13:19:09;20.50;99.90
6114;DHT22;3087;48.392;10.836;2023-07-24T13:21:34;21.00;99.90
6114;DHT22;3087;48.392;10.836;2023-07-24T13:24:00;21.40;99.90
6114;DHT22;3087;48.392;10.836;2023-07-24T13:26:25;21.50;99.90
6114;DHT22;3087;48.392;10.836;2023-07-24T13:28:51;21.60;99.90
6114;DHT22;3087;48.392;10.836;2023-07-24T13:31:18;21.70;99.90
6114;DHT22;3087;48.392;10.836;2023-07-24T13:33:45;21.70;99.90
6114;DHT22;3087;48.392;10.836;2023-07-24T13:36:11;21.80;99.90
6114;DHT22;3087;48.392;10.836;2023-07-24T13:38:36;22.20;99.90
6114;DHT22;3087;48.392;10.836;2023-07-24T13:41:03;22.70;99.90
6114;DHT22;3087;48.392;10.836;2023-07-24T13:43:30;23.30;99.90
6114;DHT22;3087;48.392;10.836;2023-07-24T13:45:57;23.60;99.90
6114;DHT22;3087;48.392;10.836;2023-07-24T13:48:22;23.30;99.90
6114;DHT22;3087;48.392;10.836;2023-07-24T13:50:49;22.70;99.90
6114;DHT22;3087;48.392;10.836;2023-07-24T13:53:15;22.40;99.90
6114;DHT22;3087;48.392;10.836;2023-07-24T13:55:41;22.50;99.90
6114;DHT22;3087;48.392;10.836;2023-07-24T13:58:06;23.00;99.90
6114;DHT22;3087;48.392;10.836;2023-07-24T14:00:32;22.90;99.90
6114;DHT22;3087;48.392;10.836;2023-07-24T14:02:57;23.00;99.90
6114;DHT22;3087;48.392;10.836;2023-07-24T14:05:24;24.00;99.90
6114;DHT22;3087;48.392;10.836;2023-07-24T14:07:49;25.00;99.90
6114;DHT22;3087;48.392;10.836;2023-07-24T14:10:15;25.60;99.90
6114;DHT22;3087;48.392;10.836;2023-07-24T14:12:40;25.70;99.90
6114;DHT22;3087;48.392;10.836;2023-07-24T14:15:07;25.90;99.90
6114;DHT22;3087;48.392;10.836;2023-07-24T14:17:32;26.30;99.90
6114;DHT22;3087;48.392;10.836;2023-07-24T14:19:58;27.00;99.90
6114;DHT22;3087;48.392;10.836;2023-07-24T14:22:23;27.40;99.90
6114;DHT22;3087;48.392;10.836;2023-07-24T14:24:49;27.70;99.90
6114;DHT22;3087;48.392;10.836;2023-07-24T14:27:14;28.10;99.90
6114;DHT22;3087;48.392;10.836;2023-07-24T14:29:40;28.20;99.90
6114;DHT22;3087;48.392;10.836;2023-07-24T14:32:06;28.00;99.90
6114;DHT22;3087;48.392;10.836;2023-07-24T14:34:32;27.80;99.90
6114;DHT22;3087;48.392;10.836;2023-07-24T14:36:58;28.20;99.90
6114;DHT22;3087;48.392;10.836;2023-07-24T14:39:24;28.80;99.90
6114;DHT22;3087;48.392;10.836;2023-07-24T14:41:49;28.40;99.90
6114;DHT22;3087;48.392;10.836;2023-07-24T14:44:15;28.10;99.90
6114;DHT22;3087;48.392;10.836;2023-07-24T14:46:40;27.60;99.90
6114;DHT22;3087;48.392;10.836;2023-07-24T14:49:06;27.20;99.90
6114;DHT22;3087;48.392;10.836;2023-07-24T14:51:32;27.00;99.90
6114;DHT22;3087;48.392;10.836;2023-07-24T14:53:58;26.60;99.90
6114;DHT22;3087;48.392;10.836;2023-07-24T14:56:23;26.40;99.90
6114;DHT22;3087;48.392;10.836;2023-07-24T14:58:49;26.10;99.90
6114;DHT22;3087;48.392;10.836;2023-07-24T15:01:15;25.90;99.90
6114;DHT22;3087;48.392;10.836;2023-07-24T15:03:40;25.80;99.90
6114;DHT22;3087;48.392;10.836;2023-07-24T15:06:06;25.70;99.90
6114;DHT22;3087;48.392;10.836;2023-07-24T15:08:33;25.50;99.90
6114;DHT22;3087;48.392;10.836;2023-07-24T15:10:59;25.40;99.90
6114;DHT22;3087;48.392;10.836;2023-07-24T15:13:24;25.30;99.90
6114;DHT22;3087;48.392;10.836;2023-07-24T15:15:50;25.40;99.90
6114;DHT22;3087;48.392;10.836;2023-07-24T15:18:15;25.40;99.90
6114;DHT22;3087;48.392;10.836;2023-07-24T15:20:41;25.30;99.90
6114;DHT22;3087;48.392;10.836;2023-07-24T15:23:06;25.10;99.90
6114;DHT22;3087;48.392;10.836;2023-07-24T15:25:32;24.90;99.90
6114;DHT22;3087;48.392;10.836;2023-07-24T15:27:58;24.70;99.90
6114;DHT22;3087;48.392;10.836;2023-07-24T15:30:24;24.40;99.90
6114;DHT22;3087;48.392;10.836;2023-07-24T15:32:50;22.70;99.90
6114;DHT22;3087;48.392;10.836;2023-07-24T15:35:15;22.50;99.90
6114;DHT22;3087;48.392;10.836;2023-07-24T15:37:41;22.20;99.90
6114;DHT22;3087;48.392;10.836;2023-07-24T15:40:07;22.00;99.90
6114;DHT22;3087;48.392;10.836;2023-07-24T15:42:32;22.00;99.90
6114;DHT22;3087;48.392;10.836;2023-07-24T15:44:58;22.10;99.90
6114;DHT22;3087;48.392;10.836;2023-07-24T15:47:24;22.20;99.90
6114;DHT22;3087;48.392;10.836;2023-07-24T15:49:51;22.10;99.90